WZZ9HE EDLW-LOWS
Flight info
| Callsign | WZZ9HE |
|---|---|
| Flight time | 0h 55m |
| Altitude | 31000 |
| Route | NUDGO3Q NUDGO Z858 ESADU DCT WRB DCT NOMKA DCT TABAT DCT ARMUT T703 ARBAX T108 OSTES T700 BADIT BADIT2R |
| Aircraft | A321/M-SDE3FGHIRWY/LB1 |
Departure
| Time | 2026-05-06 18:05 |
|---|---|
| Airport | Dortmund Airport (EDLW) |
Arrival
| Time | 2026-05-06 19:01 |
|---|---|
| Airport | Salzburg Airport (LOWS) |
| Time | Latitude | Longitude | Altitude | Speed | Heading |
|---|---|---|---|---|---|
| 2026-05-06 17:27 | 51.51560 | 7.61225 | 434 ft | 0 kts | 332° |
| 2026-05-06 17:39 | 51.51560 | 7.61226 | 434 ft | 0 kts | 332° |
| 2026-05-06 17:55 | 51.51559 | 7.61226 | 434 ft | 0 kts | 332° |
| 2026-05-06 17:59 | 51.51561 | 7.61224 | 434 ft | 2 kts | 332° |
| 2026-05-06 18:00 | 51.51594 | 7.61196 | 434 ft | 9 kts | 332° |
| 2026-05-06 18:00 | 51.51594 | 7.61081 | 426 ft | 14 kts | 246° |
| 2026-05-06 18:00 | 51.51548 | 7.60931 | 426 ft | 16 kts | 240° |
| 2026-05-06 18:00 | 51.51490 | 7.60764 | 419 ft | 17 kts | 240° |
| 2026-05-06 18:01 | 51.51439 | 7.60620 | 417 ft | 7 kts | 240° |
| 2026-05-06 18:01 | 51.51431 | 7.60598 | 411 ft | 0 kts | 240° |
| 2026-05-06 18:03 | 51.51428 | 7.60589 | 411 ft | 3 kts | 240° |
| 2026-05-06 18:03 | 51.51405 | 7.60523 | 415 ft | 9 kts | 240° |
| 2026-05-06 18:03 | 51.51365 | 7.60409 | 416 ft | 13 kts | 242° |
| 2026-05-06 18:04 | 51.51388 | 7.60284 | 415 ft | 14 kts | 326° |
| 2026-05-06 18:04 | 51.51491 | 7.60260 | 411 ft | 16 kts | 37° |
| 2026-05-06 18:04 | 51.51530 | 7.60356 | 414 ft | 8 kts | 61° |
| 2026-05-06 18:04 | 51.51618 | 7.60608 | 414 ft | 60 kts | 61° |
| 2026-05-06 18:05 | 51.51949 | 7.61546 | 411 ft | 130 kts | 60° |
| 2026-05-06 18:05 | 51.52469 | 7.63018 | 763 ft | 158 kts | 59° |
| 2026-05-06 18:05 | 51.52979 | 7.64562 | 1688 ft | 155 kts | 58° |
| 2026-05-06 18:05 | 51.53504 | 7.66068 | 2465 ft | 154 kts | 58° |
| 2026-05-06 18:06 | 51.54059 | 7.67633 | 2781 ft | 171 kts | 58° |
| 2026-05-06 18:06 | 51.54680 | 7.69372 | 2977 ft | 192 kts | 58° |
| 2026-05-06 18:06 | 51.55381 | 7.71337 | 3100 ft | 214 kts | 58° |
| 2026-05-06 18:06 | 51.56142 | 7.73568 | 3250 ft | 241 kts | 67° |
| 2026-05-06 18:07 | 51.56279 | 7.76307 | 3698 ft | 258 kts | 103° |
| 2026-05-06 18:07 | 51.55577 | 7.79009 | 4377 ft | 265 kts | 113° |
| 2026-05-06 18:07 | 51.54778 | 7.81709 | 5092 ft | 270 kts | 114° |
| 2026-05-06 18:07 | 51.53959 | 7.84463 | 5768 ft | 276 kts | 115° |
| 2026-05-06 18:08 | 51.53125 | 7.87272 | 6433 ft | 281 kts | 116° |
| 2026-05-06 18:08 | 51.52201 | 7.90052 | 7126 ft | 283 kts | 125° |
| 2026-05-06 18:08 | 51.50917 | 7.92450 | 7793 ft | 285 kts | 135° |
| 2026-05-06 18:08 | 51.49530 | 7.94746 | 8505 ft | 288 kts | 135° |
| 2026-05-06 18:09 | 51.48135 | 7.97066 | 9214 ft | 291 kts | 135° |
| 2026-05-06 18:09 | 51.46725 | 7.99419 | 9882 ft | 294 kts | 135° |
| 2026-05-06 18:09 | 51.45275 | 8.01841 | 10210 ft | 312 kts | 134° |
| 2026-05-06 18:09 | 51.43864 | 8.04632 | 10341 ft | 334 kts | 124° |
| 2026-05-06 18:10 | 51.42711 | 8.08000 | 10464 ft | 356 kts | 114° |
| 2026-05-06 18:10 | 51.41929 | 8.11863 | 10604 ft | 374 kts | 102° |
| 2026-05-06 18:10 | 51.41635 | 8.16046 | 11044 ft | 382 kts | 91° |
| 2026-05-06 18:10 | 51.41617 | 8.20338 | 11530 ft | 388 kts | 92° |
| 2026-05-06 18:11 | 51.41582 | 8.24689 | 12069 ft | 393 kts | 92° |
| 2026-05-06 18:11 | 51.41536 | 8.29089 | 12643 ft | 397 kts | 92° |
| 2026-05-06 18:11 | 51.41486 | 8.33529 | 13235 ft | 400 kts | 92° |
| 2026-05-06 18:11 | 51.41435 | 8.38008 | 13789 ft | 404 kts | 92° |
| 2026-05-06 18:12 | 51.41381 | 8.42523 | 14039 ft | 405 kts | 92° |
| 2026-05-06 18:12 | 51.41328 | 8.47042 | 14274 ft | 406 kts | 92° |
| 2026-05-06 18:12 | 51.41279 | 8.51573 | 14511 ft | 408 kts | 92° |
| 2026-05-06 18:12 | 51.41231 | 8.56128 | 14822 ft | 410 kts | 92° |
| 2026-05-06 18:13 | 51.41182 | 8.60651 | 15359 ft | 414 kts | 92° |
| 2026-05-06 18:13 | 51.41130 | 8.65276 | 15887 ft | 417 kts | 93° |
| 2026-05-06 18:13 | 51.41081 | 8.69936 | 16411 ft | 421 kts | 92° |
| 2026-05-06 18:13 | 51.41310 | 8.74638 | 16779 ft | 427 kts | 82° |
| 2026-05-06 18:14 | 51.42053 | 8.79267 | 17313 ft | 432 kts | 72° |
| 2026-05-06 18:14 | 51.43193 | 8.83841 | 17197 ft | 446 kts | 67° |
| 2026-05-06 18:14 | 51.44439 | 8.88346 | 18105 ft | 441 kts | 67° |
| 2026-05-06 18:14 | 51.45674 | 8.92849 | 18610 ft | 441 kts | 67° |
| 2026-05-06 18:15 | 51.46901 | 8.97371 | 19091 ft | 443 kts | 68° |
| 2026-05-06 18:15 | 51.48124 | 9.01914 | 19578 ft | 444 kts | 67° |
| 2026-05-06 18:15 | 51.49294 | 9.06503 | 20033 ft | 445 kts | 72° |
| 2026-05-06 18:15 | 51.50058 | 9.11324 | 20479 ft | 446 kts | 82° |
| 2026-05-06 18:16 | 51.50342 | 9.16268 | 20907 ft | 447 kts | 91° |
| 2026-05-06 18:16 | 51.50211 | 9.21251 | 21327 ft | 448 kts | 95° |
| 2026-05-06 18:16 | 51.50024 | 9.26256 | 21746 ft | 450 kts | 95° |
| 2026-05-06 18:16 | 51.49836 | 9.31277 | 22157 ft | 452 kts | 95° |
| 2026-05-06 18:17 | 51.49646 | 9.36328 | 22562 ft | 455 kts | 95° |
| 2026-05-06 18:17 | 51.49452 | 9.41405 | 22949 ft | 457 kts | 95° |
| 2026-05-06 18:17 | 51.49257 | 9.46504 | 23357 ft | 459 kts | 95° |
| 2026-05-06 18:17 | 51.49058 | 9.51637 | 23694 ft | 461 kts | 95° |
| 2026-05-06 18:18 | 51.48855 | 9.56788 | 24032 ft | 463 kts | 95° |
| 2026-05-06 18:18 | 51.48647 | 9.61950 | 24360 ft | 465 kts | 95° |
| 2026-05-06 18:18 | 51.48434 | 9.67148 | 24616 ft | 469 kts | 96° |
| 2026-05-06 18:18 | 51.48219 | 9.72392 | 24861 ft | 473 kts | 96° |
| 2026-05-06 18:19 | 51.48002 | 9.77666 | 25161 ft | 475 kts | 96° |
| 2026-05-06 18:19 | 51.47783 | 9.82972 | 25425 ft | 476 kts | 96° |
| 2026-05-06 18:19 | 51.47562 | 9.88281 | 25669 ft | 478 kts | 96° |
| 2026-05-06 18:19 | 51.47338 | 9.93608 | 25808 ft | 480 kts | 96° |
| 2026-05-06 18:20 | 51.47109 | 9.98952 | 26128 ft | 482 kts | 96° |
| 2026-05-06 18:20 | 51.46877 | 10.04326 | 26455 ft | 484 kts | 97° |
| 2026-05-06 18:20 | 51.46641 | 10.09715 | 26791 ft | 484 kts | 97° |
| 2026-05-06 18:20 | 51.46403 | 10.15089 | 27231 ft | 483 kts | 97° |
| 2026-05-06 18:21 | 51.46164 | 10.20439 | 27722 ft | 480 kts | 97° |
| 2026-05-06 18:21 | 51.45921 | 10.25770 | 28188 ft | 478 kts | 97° |
| 2026-05-06 18:21 | 51.45675 | 10.31077 | 28640 ft | 477 kts | 97° |
| 2026-05-06 18:21 | 51.45426 | 10.36367 | 29099 ft | 475 kts | 99° |
| 2026-05-06 18:22 | 51.44861 | 10.41545 | 29540 ft | 468 kts | 109° |
| 2026-05-06 18:22 | 51.43771 | 10.46417 | 29952 ft | 462 kts | 119° |
| 2026-05-06 18:22 | 51.42219 | 10.50880 | 30298 ft | 456 kts | 128° |
| 2026-05-06 18:22 | 51.40298 | 10.54796 | 30618 ft | 451 kts | 137° |
| 2026-05-06 18:23 | 51.38015 | 10.58199 | 30754 ft | 447 kts | 146° |
| 2026-05-06 18:23 | 51.35496 | 10.61193 | 30796 ft | 444 kts | 147° |
| 2026-05-06 18:23 | 51.30538 | 10.67020 | 30792 ft | 442 kts | 147° |
| 2026-05-06 18:24 | 51.25618 | 10.72800 | 30790 ft | 442 kts | 147° |
| 2026-05-06 18:24 | 51.20632 | 10.78647 | 30788 ft | 442 kts | 147° |
| 2026-05-06 18:25 | 51.15711 | 10.84391 | 30787 ft | 442 kts | 147° |
| 2026-05-06 18:25 | 51.10754 | 10.90163 | 30784 ft | 442 kts | 147° |
| 2026-05-06 18:26 | 51.05776 | 10.95945 | 30757 ft | 442 kts | 148° |
| 2026-05-06 18:26 | 51.00802 | 11.01713 | 30762 ft | 443 kts | 148° |
| 2026-05-06 18:27 | 50.95813 | 11.07472 | 30769 ft | 444 kts | 148° |
| 2026-05-06 18:27 | 50.90818 | 11.13225 | 30777 ft | 444 kts | 148° |
| 2026-05-06 18:28 | 50.85817 | 11.18966 | 30785 ft | 444 kts | 148° |
| 2026-05-06 18:28 | 50.80813 | 11.24711 | 30790 ft | 444 kts | 148° |
| 2026-05-06 18:29 | 50.75813 | 11.30446 | 30778 ft | 444 kts | 149° |
| 2026-05-06 18:29 | 50.70850 | 11.36117 | 30784 ft | 442 kts | 149° |
| 2026-05-06 18:30 | 50.65853 | 11.41792 | 30794 ft | 442 kts | 149° |
| 2026-05-06 18:30 | 50.60755 | 11.47081 | 30797 ft | 434 kts | 160° |
| 2026-05-06 18:31 | 50.55219 | 11.50816 | 30793 ft | 433 kts | 161° |
| 2026-05-06 18:31 | 50.49663 | 11.54469 | 30797 ft | 432 kts | 162° |
| 2026-05-06 18:32 | 50.44113 | 11.58098 | 30792 ft | 432 kts | 162° |
| 2026-05-06 18:32 | 50.38563 | 11.61735 | 30764 ft | 432 kts | 162° |
| 2026-05-06 18:33 | 50.33016 | 11.65367 | 30770 ft | 432 kts | 162° |
| 2026-05-06 18:33 | 50.27467 | 11.68999 | 30775 ft | 432 kts | 162° |
| 2026-05-06 18:34 | 50.21927 | 11.72626 | 30776 ft | 432 kts | 162° |
| 2026-05-06 18:34 | 50.16379 | 11.76237 | 30791 ft | 431 kts | 162° |
| 2026-05-06 18:35 | 50.10837 | 11.79830 | 30791 ft | 431 kts | 162° |
| 2026-05-06 18:35 | 50.05297 | 11.83408 | 30794 ft | 431 kts | 162° |
| 2026-05-06 18:36 | 49.99754 | 11.86977 | 30792 ft | 430 kts | 162° |
| 2026-05-06 18:36 | 49.94222 | 11.90534 | 30771 ft | 430 kts | 163° |
| 2026-05-06 18:37 | 49.89636 | 11.93486 | 30769 ft | 429 kts | 163° |
| 2026-05-06 18:37 | 49.83223 | 11.97599 | 30770 ft | 429 kts | 163° |
| 2026-05-06 18:38 | 49.77714 | 12.01113 | 30766 ft | 428 kts | 163° |
| 2026-05-06 18:38 | 49.72210 | 12.04619 | 30774 ft | 427 kts | 163° |
| 2026-05-06 18:39 | 49.67606 | 12.07547 | 30777 ft | 427 kts | 163° |
| 2026-05-06 18:40 | 49.59377 | 12.12776 | 30781 ft | 426 kts | 163° |
| 2026-05-06 18:40 | 49.53897 | 12.16247 | 30779 ft | 425 kts | 163° |
| 2026-05-06 18:41 | 49.48426 | 12.19693 | 30778 ft | 424 kts | 163° |
| 2026-05-06 18:41 | 49.43000 | 12.23096 | 30773 ft | 424 kts | 163° |
| 2026-05-06 18:42 | 49.37548 | 12.26524 | 30774 ft | 423 kts | 163° |
| 2026-05-06 18:42 | 49.32059 | 12.29961 | 30776 ft | 423 kts | 163° |
| 2026-05-06 18:43 | 49.26645 | 12.33346 | 30771 ft | 423 kts | 163° |
| 2026-05-06 18:43 | 49.21212 | 12.36733 | 30439 ft | 420 kts | 163° |
| 2026-05-06 18:43 | 49.18501 | 12.38415 | 29691 ft | 421 kts | 163° |
| 2026-05-06 18:44 | 49.15775 | 12.40102 | 28773 ft | 424 kts | 162° |
| 2026-05-06 18:44 | 49.13028 | 12.41802 | 27800 ft | 428 kts | 162° |
| 2026-05-06 18:44 | 49.10251 | 12.43518 | 26811 ft | 433 kts | 162° |
| 2026-05-06 18:44 | 49.07442 | 12.45252 | 25717 ft | 439 kts | 162° |
| 2026-05-06 18:45 | 49.04584 | 12.47017 | 24664 ft | 446 kts | 161° |
| 2026-05-06 18:45 | 49.01699 | 12.48808 | 23954 ft | 450 kts | 161° |
| 2026-05-06 18:45 | 48.98815 | 12.50601 | 23298 ft | 445 kts | 161° |
| 2026-05-06 18:45 | 48.95994 | 12.52357 | 22604 ft | 429 kts | 161° |
| 2026-05-06 18:46 | 48.85129 | 12.59037 | 19968 ft | 387 kts | 162° |
| 2026-05-06 18:47 | 48.82632 | 12.60559 | 19771 ft | 386 kts | 162° |
| 2026-05-06 18:47 | 48.80143 | 12.62073 | 19783 ft | 385 kts | 162° |
| 2026-05-06 18:47 | 48.77655 | 12.63588 | 19783 ft | 386 kts | 162° |
| 2026-05-06 18:47 | 48.75163 | 12.65104 | 19734 ft | 384 kts | 162° |
| 2026-05-06 18:48 | 48.72694 | 12.66609 | 19297 ft | 380 kts | 162° |
| 2026-05-06 18:48 | 48.70229 | 12.67910 | 18556 ft | 371 kts | 169° |
| 2026-05-06 18:48 | 48.67716 | 12.68646 | 17758 ft | 365 kts | 173° |
| 2026-05-06 18:48 | 48.65224 | 12.69284 | 16908 ft | 362 kts | 173° |
| 2026-05-06 18:49 | 48.62741 | 12.69925 | 16304 ft | 361 kts | 173° |
| 2026-05-06 18:49 | 48.60274 | 12.70569 | 15774 ft | 359 kts | 173° |
| 2026-05-06 18:49 | 48.57819 | 12.71172 | 15179 ft | 357 kts | 174° |
| 2026-05-06 18:49 | 48.55365 | 12.71716 | 14677 ft | 355 kts | 174° |
| 2026-05-06 18:50 | 48.52928 | 12.72222 | 14160 ft | 352 kts | 175° |
| 2026-05-06 18:50 | 48.50511 | 12.72714 | 13662 ft | 349 kts | 175° |
| 2026-05-06 18:50 | 48.48143 | 12.73196 | 13116 ft | 346 kts | 175° |
| 2026-05-06 18:50 | 48.45735 | 12.73695 | 12585 ft | 343 kts | 175° |
| 2026-05-06 18:51 | 48.43401 | 12.74189 | 12040 ft | 331 kts | 175° |
| 2026-05-06 18:51 | 48.41199 | 12.74670 | 11852 ft | 311 kts | 175° |
| 2026-05-06 18:51 | 48.39093 | 12.75213 | 11342 ft | 305 kts | 170° |
| 2026-05-06 18:51 | 48.37074 | 12.75952 | 10764 ft | 302 kts | 170° |
| 2026-05-06 18:52 | 48.35043 | 12.76688 | 10171 ft | 298 kts | 170° |
| 2026-05-06 18:52 | 48.33074 | 12.77367 | 9954 ft | 282 kts | 171° |
| 2026-05-06 18:52 | 48.31191 | 12.77997 | 9561 ft | 274 kts | 171° |
| 2026-05-06 18:52 | 48.29340 | 12.78604 | 9009 ft | 271 kts | 172° |
| 2026-05-06 18:53 | 48.27498 | 12.79208 | 8448 ft | 271 kts | 172° |
| 2026-05-06 18:53 | 48.25647 | 12.79817 | 8059 ft | 272 kts | 172° |
| 2026-05-06 18:53 | 48.23804 | 12.80425 | 7707 ft | 271 kts | 172° |
| 2026-05-06 18:53 | 48.21969 | 12.81030 | 7353 ft | 270 kts | 172° |
| 2026-05-06 18:54 | 48.20134 | 12.81636 | 6990 ft | 270 kts | 172° |
| 2026-05-06 18:54 | 48.18298 | 12.82245 | 6628 ft | 270 kts | 172° |
| 2026-05-06 18:54 | 48.16464 | 12.82853 | 6259 ft | 270 kts | 172° |
| 2026-05-06 18:54 | 48.14624 | 12.83459 | 5866 ft | 271 kts | 172° |
| 2026-05-06 18:55 | 48.12778 | 12.84068 | 5479 ft | 272 kts | 173° |
| 2026-05-06 18:55 | 48.10927 | 12.84681 | 5109 ft | 272 kts | 173° |
| 2026-05-06 18:55 | 48.09086 | 12.85291 | 4775 ft | 271 kts | 173° |
| 2026-05-06 18:55 | 48.07246 | 12.85899 | 4413 ft | 271 kts | 172° |
| 2026-05-06 18:56 | 48.05419 | 12.86502 | 4182 ft | 265 kts | 172° |
| 2026-05-06 18:56 | 48.03653 | 12.87089 | 4061 ft | 255 kts | 173° |
| 2026-05-06 18:56 | 48.01966 | 12.87652 | 4047 ft | 241 kts | 173° |
| 2026-05-06 18:56 | 48.00323 | 12.88194 | 4047 ft | 241 kts | 173° |
| 2026-05-06 18:57 | 47.98691 | 12.88729 | 4045 ft | 240 kts | 174° |
| 2026-05-06 18:57 | 47.97070 | 12.89300 | 4043 ft | 238 kts | 170° |
| 2026-05-06 18:57 | 47.95545 | 12.90112 | 4037 ft | 229 kts | 164° |
| 2026-05-06 18:57 | 47.94096 | 12.91024 | 4065 ft | 225 kts | 163° |
| 2026-05-06 18:58 | 47.92703 | 12.91919 | 4030 ft | 208 kts | 164° |
| 2026-05-06 18:58 | 47.91406 | 12.92746 | 3833 ft | 199 kts | 165° |
| 2026-05-06 18:58 | 47.90147 | 12.93544 | 3601 ft | 195 kts | 165° |
| 2026-05-06 18:58 | 47.88909 | 12.94329 | 3363 ft | 188 kts | 165° |
| 2026-05-06 18:59 | 47.87749 | 12.95069 | 3116 ft | 177 kts | 166° |
| 2026-05-06 18:59 | 47.86633 | 12.95775 | 2859 ft | 173 kts | 166° |
| 2026-05-06 18:59 | 47.85536 | 12.96469 | 2624 ft | 171 kts | 165° |
| 2026-05-06 18:59 | 47.84444 | 12.97160 | 2380 ft | 170 kts | 165° |
| 2026-05-06 19:00 | 47.83716 | 12.97612 | 2216 ft | 173 kts | 164° |
| 2026-05-06 19:00 | 47.82617 | 12.98305 | 1991 ft | 174 kts | 164° |
| 2026-05-06 19:00 | 47.81485 | 12.99043 | 1743 ft | 179 kts | 161° |
| 2026-05-06 19:00 | 47.80349 | 12.99758 | 1482 ft | 176 kts | 163° |
| 2026-05-06 19:01 | 47.79298 | 13.00408 | 1421 ft | 145 kts | 156° |
| 2026-05-06 19:01 | 47.78745 | 13.00767 | 1421 ft | 44 kts | 157° |
| 2026-05-06 19:01 | 47.78576 | 13.00840 | 1419 ft | 15 kts | 207° |
| 2026-05-06 19:01 | 47.78536 | 13.00740 | 1421 ft | 5 kts | 251° |
| 2026-05-06 19:02 | 47.78532 | 13.00722 | 1420 ft | 2 kts | 252° |
| 2026-05-06 19:02 | 47.78527 | 13.00660 | 1420 ft | 9 kts | 283° |
| 2026-05-06 19:02 | 47.78595 | 13.00593 | 1422 ft | 14 kts | 336° |
| 2026-05-06 19:02 | 47.78687 | 13.00534 | 1423 ft | 15 kts | 336° |
| 2026-05-06 19:03 | 47.78787 | 13.00471 | 1423 ft | 16 kts | 336° |
| 2026-05-06 19:03 | 47.78873 | 13.00418 | 1421 ft | 11 kts | 337° |
| 2026-05-06 19:03 | 47.78944 | 13.00367 | 1420 ft | 12 kts | 320° |
| 2026-05-06 19:03 | 47.78956 | 13.00249 | 1420 ft | 12 kts | 269° |
| 2026-05-06 19:04 | 47.78964 | 13.00116 | 1425 ft | 13 kts | 279° |
| 2026-05-06 19:04 | 47.78971 | 13.00044 | 1420 ft | 1 kts | 280° |
| 2026-05-06 19:04 | 47.78971 | 13.00039 | 1420 ft | 0 kts | 280° |